createdAt,value
2023-05-20T00:01:29.896Z,58.26
2023-05-20T00:03:59.762Z,58.18
2023-05-20T00:06:29.988Z,58.30
2023-05-20T00:08:59.997Z,58.25
2023-05-20T00:11:27.316Z,58.32
2023-05-20T00:13:54.541Z,58.29
2023-05-20T00:16:21.675Z,58.29
2023-05-20T00:18:49.481Z,58.26
2023-05-20T00:21:16.660Z,58.30
2023-05-20T00:23:45.854Z,58.33
2023-05-20T00:26:12.957Z,58.27
2023-05-20T00:28:41.667Z,58.36
2023-05-20T00:31:10.053Z,58.42
2023-05-20T00:33:37.851Z,58.46
2023-05-20T00:36:05.754Z,58.50
2023-05-20T00:38:35.065Z,58.62
2023-05-20T00:41:02.346Z,58.74
2023-05-20T00:43:31.964Z,58.85
2023-05-20T00:45:59.147Z,59.05
2023-05-20T00:48:27.059Z,59.01
2023-05-20T00:50:55.209Z,59.00
2023-05-20T00:53:22.353Z,59.03
2023-05-20T00:55:51.671Z,59.07
2023-05-20T00:58:20.237Z,59.06
2023-05-20T01:00:47.815Z,59.05
2023-05-20T01:03:16.056Z,59.00
2023-05-20T01:05:43.359Z,58.96
2023-05-20T01:08:13.346Z,58.87
2023-05-20T01:10:43.179Z,58.79
2023-05-20T01:13:11.866Z,58.63
2023-05-20T01:15:39.428Z,58.66
2023-05-20T01:18:06.741Z,58.62
2023-05-20T01:20:34.014Z,58.53
2023-05-20T01:23:01.587Z,58.43
2023-05-20T01:25:29.231Z,58.32
2023-05-20T01:27:58.135Z,58.32
2023-05-20T01:30:31.058Z,58.15
2023-05-20T01:33:08.616Z,58.07
2023-05-20T01:35:36.291Z,58.00
2023-05-20T01:38:06.762Z,57.92
2023-05-20T01:40:35.086Z,57.82
2023-05-20T01:43:03.450Z,57.73
2023-05-20T01:45:30.707Z,57.66
2023-05-20T01:47:59.809Z,57.55
2023-05-20T01:50:27.263Z,57.49
2023-05-20T01:52:55.023Z,57.43
2023-05-20T01:55:23.346Z,57.33
2023-05-20T01:57:51.135Z,57.15
2023-05-20T02:00:25.796Z,57.07
2023-05-20T02:02:53.155Z,56.99
2023-05-20T02:05:20.588Z,56.91
2023-05-20T02:07:47.791Z,56.80
2023-05-20T02:10:17.999Z,56.68
2023-05-20T02:12:48.182Z,56.62
2023-05-20T02:15:15.706Z,56.56
2023-05-20T02:17:43.914Z,56.48
2023-05-20T02:20:12.405Z,56.44
2023-05-20T02:22:39.743Z,56.38
2023-05-20T02:25:07.524Z,56.36
2023-05-20T02:27:34.766Z,56.25
2023-05-20T02:30:02.283Z,56.18
2023-05-20T02:32:30.930Z,56.12
2023-05-20T02:34:59.426Z,56.06
2023-05-20T02:37:27.333Z,55.93
2023-05-20T02:39:54.609Z,55.92
2023-05-20T02:42:21.894Z,55.85
2023-05-20T02:44:49.114Z,55.82
2023-05-20T02:47:16.530Z,55.85
2023-05-20T02:49:46.138Z,55.83
2023-05-20T02:52:14.402Z,55.80
2023-05-20T02:54:41.805Z,55.82
2023-05-20T02:57:10.441Z,55.83
2023-05-20T02:59:38.044Z,55.83
2023-05-20T03:02:05.621Z,55.85
2023-05-20T03:04:33.006Z,55.81
2023-05-20T03:07:00.187Z,55.90
2023-05-20T03:09:27.669Z,55.98
2023-05-20T03:11:54.965Z,55.94
2023-05-20T03:14:22.184Z,56.05
2023-05-20T03:16:50.148Z,56.05
2023-05-20T03:19:17.306Z,56.05
2023-05-20T03:21:44.554Z,56.05
2023-05-20T03:24:12.776Z,56.06
2023-05-20T03:26:43.426Z,56.17
2023-05-20T03:29:11.071Z,56.10
2023-05-20T03:31:40.132Z,56.14
2023-05-20T03:34:09.816Z,56.04
2023-05-20T03:36:37.380Z,55.98
2023-05-20T03:39:06.780Z,55.94
2023-05-20T03:41:35.991Z,55.96
2023-05-20T03:44:04.324Z,56.06
2023-05-20T03:46:32.804Z,56.10
2023-05-20T03:49:02.236Z,56.08
2023-05-20T03:51:31.533Z,56.07
2023-05-20T03:54:03.514Z,56.03
2023-05-20T03:56:30.754Z,55.99
2023-05-20T03:58:58.664Z,55.86
2023-05-20T04:01:26.282Z,55.78
2023-05-20T04:03:53.595Z,55.82
2023-05-20T04:06:22.759Z,55.76
2023-05-20T04:08:50.645Z,55.87
2023-05-20T04:11:17.854Z,55.77
2023-05-20T04:13:45.126Z,55.76
2023-05-20T04:16:12.865Z,55.64
2023-05-20T04:18:41.319Z,55.53
2023-05-20T04:21:09.860Z,55.50
2023-05-20T04:23:37.183Z,55.38
2023-05-20T04:26:05.324Z,55.13
2023-05-20T04:28:33.186Z,54.81
2023-05-20T04:31:02.911Z,54.50
2023-05-20T04:33:33.156Z,54.12
2023-05-20T04:36:03.318Z,53.78
2023-05-20T04:38:34.733Z,53.54
2023-05-20T04:41:02.611Z,53.25
2023-05-20T04:43:34.016Z,52.85
2023-05-20T04:46:06.448Z,52.45
2023-05-20T04:48:34.413Z,52.26
2023-05-20T04:51:04.438Z,51.85
2023-05-20T04:53:34.216Z,51.30
2023-05-20T04:56:03.960Z,51.04
2023-05-20T04:58:31.925Z,50.58
2023-05-20T05:01:01.651Z,50.20
2023-05-20T05:03:29.051Z,49.96
2023-05-20T05:05:59.115Z,49.46
2023-05-20T05:08:27.585Z,49.11
2023-05-20T05:10:55.551Z,48.92
2023-05-20T05:13:22.917Z,48.63
2023-05-20T05:15:58.642Z,48.32
2023-05-20T05:18:27.924Z,48.10
2023-05-20T05:21:01.997Z,47.72
2023-05-20T05:23:30.146Z,47.25
2023-05-20T05:25:58.833Z,46.89
2023-05-20T05:28:26.368Z,46.22
2023-05-20T05:30:57.064Z,46.05
2023-05-20T05:33:24.736Z,45.86
2023-05-20T05:35:52.428Z,45.41
2023-05-20T05:38:19.878Z,44.94
2023-05-20T05:40:47.192Z,44.35
2023-05-20T05:43:15.529Z,44.15
2023-05-20T05:45:43.429Z,43.78
2023-05-20T05:48:18.156Z,43.44
2023-05-20T05:50:47.244Z,42.90
2023-05-20T05:53:17.578Z,42.51
2023-05-20T05:55:47.723Z,42.16
2023-05-20T05:58:15.870Z,41.87
2023-05-20T06:00:43.166Z,41.56
2023-05-20T06:03:12.225Z,41.01
2023-05-20T06:05:40.173Z,40.40
2023-05-20T06:08:13.377Z,39.81
2023-05-20T06:10:40.985Z,38.98
2023-05-20T06:13:08.692Z,38.41
2023-05-20T06:15:37.480Z,38.25
2023-05-20T06:18:09.447Z,37.97
2023-05-20T06:20:37.876Z,37.71
2023-05-20T06:23:06.357Z,37.49
2023-05-20T06:25:44.210Z,36.80
2023-05-20T06:28:13.717Z,36.06
2023-05-20T06:30:45.597Z,35.79
2023-05-20T06:33:13.062Z,35.39
2023-05-20T06:35:41.437Z,35.28
2023-05-20T06:38:09.888Z,34.79
2023-05-20T06:40:37.577Z,34.66
2023-05-20T06:43:09.471Z,34.50
2023-05-20T06:46:05.156Z,33.73
2023-05-20T06:48:39.334Z,33.82
2023-05-20T06:51:11.628Z,33.86
2023-05-20T06:53:40.764Z,33.64
2023-05-20T06:56:08.497Z,33.46
2023-05-20T06:58:36.138Z,33.30
2023-05-20T07:01:04.409Z,32.99
2023-05-20T07:03:33.687Z,32.63
2023-05-20T07:06:01.916Z,32.12
2023-05-20T07:08:29.525Z,31.60
2023-05-20T07:10:57.403Z,31.18
2023-05-20T07:13:26.335Z,31.20
2023-05-20T07:15:55.447Z,31.16
2023-05-20T07:18:24.918Z,30.99
2023-05-20T07:20:57.141Z,30.24
2023-05-20T07:23:37.792Z,30.02
2023-05-20T07:26:05.250Z,29.72
2023-05-20T07:28:33.873Z,29.47
2023-05-20T07:31:01.184Z,29.34
2023-05-20T07:33:30.276Z,29.06
2023-05-20T07:35:58.402Z,28.93
2023-05-20T07:38:26.257Z,29.08
2023-05-20T07:41:02.589Z,28.72
2023-05-20T07:43:31.430Z,28.35
2023-05-20T07:46:00.266Z,28.27
2023-05-20T07:48:34.439Z,27.91
2023-05-20T07:51:01.996Z,27.62
2023-05-20T07:53:29.656Z,27.05
2023-05-20T07:55:57.067Z,26.93
2023-05-20T07:58:27.979Z,26.86
2023-05-20T08:00:56.191Z,26.84
2023-05-20T08:03:24.881Z,27.11
2023-05-20T08:06:05.687Z,27.37
2023-05-20T08:08:35.028Z,27.52
2023-05-20T08:11:10.274Z,26.94
2023-05-20T08:13:37.875Z,26.44
2023-05-20T08:16:06.268Z,26.49
2023-05-20T08:18:36.751Z,26.28
2023-05-20T08:21:12.730Z,25.70
2023-05-20T08:23:40.722Z,25.06
2023-05-20T08:26:08.364Z,24.99
2023-05-20T08:28:40.755Z,25.21
2023-05-20T08:31:08.310Z,25.69
2023-05-20T08:33:35.751Z,25.69
2023-05-20T08:36:03.834Z,25.14
2023-05-20T08:38:31.510Z,24.90
2023-05-20T08:40:58.797Z,24.55
2023-05-20T08:43:28.957Z,24.21
2023-05-20T08:45:59.173Z,24.08
2023-05-20T08:48:33.458Z,23.65
2023-05-20T08:52:18.269Z,23.36
2023-05-20T08:54:49.506Z,22.94
2023-05-20T08:57:17.119Z,22.62
2023-05-20T08:59:47.161Z,22.57
2023-05-20T09:02:17.530Z,22.85
2023-05-20T09:04:45.662Z,22.79
2023-05-20T09:07:12.954Z,22.34
2023-05-20T09:09:42.378Z,22.27
2023-05-20T09:12:17.402Z,22.40
2023-05-20T09:14:45.558Z,22.73
2023-05-20T09:17:13.518Z,22.63
2023-05-20T09:19:41.214Z,22.52
2023-05-20T09:22:12.393Z,22.63
2023-05-20T09:24:39.543Z,22.59
2023-05-20T09:27:07.868Z,22.96
2023-05-20T09:29:37.561Z,22.50
2023-05-20T09:32:05.296Z,22.55
2023-05-20T09:34:36.690Z,22.53
2023-05-20T09:37:04.060Z,22.07
2023-05-20T09:39:32.004Z,21.66
2023-05-20T09:42:16.768Z,21.50
2023-05-20T09:44:46.587Z,21.57
2023-05-20T09:47:19.224Z,21.61
2023-05-20T09:49:47.611Z,21.52
2023-05-20T09:52:15.855Z,21.34
2023-05-20T09:54:44.955Z,21.31
2023-05-20T09:57:14.177Z,21.18
2023-05-20T09:59:42.137Z,21.05
2023-05-20T10:02:11.156Z,21.26
2023-05-20T10:04:44.701Z,21.16
2023-05-20T10:07:19.413Z,21.41
2023-05-20T10:10:21.163Z,21.15
2023-05-20T10:13:23.598Z,20.95
2023-05-20T10:18:29.433Z,20.78
2023-05-20T10:21:03.278Z,20.67
2023-05-20T10:23:33.947Z,20.61
2023-05-20T10:26:08.907Z,20.44
2023-05-20T10:28:39.413Z,20.20
2023-05-20T10:31:16.749Z,20.13
2023-05-20T10:33:46.337Z,20.36
2023-05-20T10:36:28.615Z,20.64
2023-05-20T10:41:38.527Z,20.72
2023-05-20T10:44:06.879Z,20.50
2023-05-20T10:46:48.358Z,20.32
2023-05-20T10:49:46.101Z,20.67
2023-05-20T10:52:16.430Z,20.95
2023-05-20T10:56:58.262Z,20.78
2023-05-20T10:59:27.130Z,20.69
2023-05-20T11:01:54.422Z,20.49
2023-05-20T11:05:30.715Z,20.69
2023-05-20T11:08:11.024Z,20.87
2023-05-20T11:10:50.241Z,21.13
2023-05-20T11:13:18.543Z,21.09
2023-05-20T11:15:52.026Z,21.20
2023-05-20T11:18:20.200Z,21.24
2023-05-20T11:20:47.959Z,21.24
2023-05-20T11:23:19.632Z,21.06
2023-05-20T11:25:48.611Z,21.19
2023-05-20T11:28:16.587Z,21.46
2023-05-20T11:30:44.851Z,21.67
2023-05-20T11:33:13.735Z,21.62
2023-05-20T11:35:58.708Z,21.37
2023-05-20T11:38:26.023Z,21.77
2023-05-20T11:40:57.900Z,22.45
2023-05-20T11:43:26.099Z,22.89
2023-05-20T11:46:00.712Z,23.36
2023-05-20T11:48:27.955Z,23.78
2023-05-20T11:50:56.455Z,23.51
2023-05-20T11:53:24.289Z,23.75
2023-05-20T11:55:53.624Z,24.00
2023-05-20T11:58:28.927Z,24.08
2023-05-20T12:01:05.645Z,24.37
2023-05-20T12:03:47.284Z,24.49
2023-05-20T12:06:20.192Z,24.59
2023-05-20T12:08:55.764Z,24.81
2023-05-20T12:11:23.214Z,25.01
2023-05-20T12:13:50.631Z,25.13
2023-05-20T12:16:20.854Z,25.39
2023-05-20T12:18:48.287Z,25.28
2023-05-20T12:21:15.667Z,25.43
2023-05-20T12:23:43.278Z,25.33
2023-05-20T12:26:10.609Z,25.31
2023-05-20T12:28:38.096Z,25.39
2023-05-20T12:31:06.312Z,25.70
2023-05-20T12:33:33.550Z,25.79
2023-05-20T12:36:00.783Z,25.90
2023-05-20T12:38:31.914Z,26.30
2023-05-20T12:40:59.210Z,26.41
2023-05-20T12:43:28.133Z,26.68
2023-05-20T12:45:56.823Z,26.44
2023-05-20T12:48:24.208Z,26.58
2023-05-20T12:50:51.345Z,26.45
2023-05-20T12:53:18.788Z,26.47
2023-05-20T12:55:47.123Z,26.39
2023-05-20T12:58:14.318Z,26.43
2023-05-20T13:00:44.530Z,26.20
2023-05-20T13:03:12.141Z,26.32
2023-05-20T13:05:39.794Z,26.36
2023-05-20T13:08:09.203Z,26.39
2023-05-20T13:10:36.984Z,26.41
2023-05-20T13:13:08.479Z,26.42
2023-05-20T13:15:37.163Z,26.34
2023-05-20T13:18:06.618Z,26.25
2023-05-20T13:20:34.323Z,26.47
2023-05-20T13:23:03.873Z,26.51
2023-05-20T13:25:32.076Z,26.35
2023-05-20T13:27:59.338Z,26.47
2023-05-20T13:30:27.046Z,26.42
2023-05-20T13:32:55.116Z,26.52
2023-05-20T13:35:22.572Z,26.61
2023-05-20T13:37:49.832Z,26.77
2023-05-20T13:40:17.777Z,26.64
2023-05-20T13:42:48.519Z,26.57
2023-05-20T13:45:18.888Z,26.59
2023-05-20T13:47:46.565Z,26.55
2023-05-20T13:50:14.089Z,26.59
2023-05-20T13:52:42.038Z,26.67
2023-05-20T13:55:09.844Z,26.70
2023-05-20T13:57:38.166Z,26.83
2023-05-20T14:00:07.408Z,26.93
2023-05-20T14:02:38.877Z,27.06
2023-05-20T14:05:07.914Z,26.98
2023-05-20T14:07:36.928Z,27.01
2023-05-20T14:10:04.665Z,26.80
2023-05-20T14:12:33.505Z,26.62
2023-05-20T14:15:03.701Z,26.68
2023-05-20T14:17:33.028Z,26.75
2023-05-20T14:20:00.856Z,26.77
2023-05-20T14:22:28.054Z,26.67
2023-05-20T14:24:56.580Z,26.74
2023-05-20T14:27:23.828Z,26.86
2023-05-20T14:29:51.078Z,26.90
2023-05-20T14:32:18.439Z,26.79
2023-05-20T14:34:47.086Z,26.82
2023-05-20T14:37:18.778Z,26.83
2023-05-20T14:39:46.027Z,26.99
2023-05-20T14:42:13.163Z,27.08
2023-05-20T14:44:41.420Z,27.10
2023-05-20T14:47:11.760Z,27.11
2023-05-20T14:49:41.795Z,27.18
2023-05-20T14:52:09.371Z,27.28
2023-05-20T14:54:38.147Z,27.34
2023-05-20T14:57:06.945Z,27.26
2023-05-20T14:59:35.149Z,27.23
2023-05-20T15:02:03.239Z,27.13
2023-05-20T15:04:33.221Z,27.21
2023-05-20T15:07:01.621Z,27.37
2023-05-20T15:09:31.089Z,27.38
2023-05-20T15:11:58.757Z,27.43
2023-05-20T15:14:27.184Z,27.55
2023-05-20T15:16:55.901Z,27.65
2023-05-20T15:19:24.510Z,27.57
2023-05-20T15:21:56.153Z,27.76
2023-05-20T15:24:26.673Z,27.69
2023-05-20T15:26:56.437Z,27.76
2023-05-20T15:29:25.201Z,27.87
2023-05-20T15:31:53.514Z,27.88
2023-05-20T15:34:20.765Z,27.81
2023-05-20T15:36:54.362Z,27.93
2023-05-20T15:39:22.710Z,27.90
2023-05-20T15:41:52.904Z,27.89
2023-05-20T15:44:20.990Z,27.85
2023-05-20T15:46:49.841Z,27.93
2023-05-20T15:49:18.149Z,27.79
2023-05-20T15:51:55.852Z,27.86
2023-05-20T15:54:34.157Z,27.93
2023-05-20T15:57:02.806Z,27.91
2023-05-20T15:59:30.311Z,27.83
2023-05-20T16:01:57.803Z,28.00
2023-05-20T16:04:25.338Z,28.01
2023-05-20T16:06:54.431Z,27.96
2023-05-20T16:09:22.303Z,28.04
2023-05-20T16:11:51.421Z,28.11
2023-05-20T16:14:23.160Z,28.09
2023-05-20T16:16:50.963Z,28.20
2023-05-20T16:19:21.421Z,28.25
2023-05-20T16:21:49.400Z,28.29
2023-05-20T16:24:16.552Z,28.23
2023-05-20T16:26:43.919Z,28.30
2023-05-20T16:29:11.460Z,28.39
2023-05-20T16:31:39.061Z,28.29
2023-05-20T16:34:13.906Z,28.19
2023-05-20T16:36:42.083Z,28.21
2023-05-20T16:39:09.368Z,28.36
2023-05-20T16:41:39.510Z,28.34
2023-05-20T16:44:07.778Z,28.30
2023-05-20T16:46:38.512Z,28.37
2023-05-20T16:49:06.184Z,28.23
2023-05-20T16:51:37.225Z,28.16
2023-05-20T16:54:05.517Z,28.25
2023-05-20T16:56:35.253Z,28.36
2023-05-20T16:59:03.223Z,28.40
2023-05-20T17:01:32.249Z,28.48
2023-05-20T17:04:01.616Z,28.50
2023-05-20T17:06:34.680Z,28.77
2023-05-20T17:09:09.186Z,28.70
2023-05-20T17:11:37.252Z,28.82
2023-05-20T17:14:06.106Z,28.84
2023-05-20T17:16:36.727Z,28.94
2023-05-20T17:19:18.385Z,29.01
2023-05-20T17:21:46.846Z,29.21
2023-05-20T17:24:17.806Z,29.11
2023-05-20T17:26:47.912Z,29.18
2023-05-20T17:29:17.305Z,29.29
2023-05-20T17:31:44.816Z,29.40
2023-05-20T17:34:14.205Z,29.42
2023-05-20T17:36:42.545Z,29.60
2023-05-20T17:39:11.347Z,29.74
2023-05-20T17:41:43.510Z,29.77
2023-05-20T17:44:11.683Z,29.88
2023-05-20T17:49:56.845Z,30.22
2023-05-20T17:52:27.478Z,30.33
2023-05-20T17:54:57.662Z,30.31
2023-05-20T17:57:54.168Z,30.40
2023-05-20T18:00:21.857Z,30.50
2023-05-20T18:02:50.053Z,30.61
2023-05-20T18:05:18.462Z,30.63
2023-05-20T18:07:47.451Z,30.79
2023-05-20T18:10:17.725Z,30.77
2023-05-20T18:12:45.867Z,30.85
2023-05-20T18:15:19.302Z,30.92
2023-05-20T18:17:48.922Z,30.97
2023-05-20T18:20:16.848Z,31.05
2023-05-20T18:22:45.921Z,31.11
2023-05-20T18:25:15.638Z,31.29
2023-05-20T18:27:44.459Z,31.33
2023-05-20T18:30:11.990Z,31.42
2023-05-20T18:32:40.031Z,31.44
2023-05-20T18:35:07.857Z,31.65
2023-05-20T18:37:39.400Z,31.65
2023-05-20T18:40:07.962Z,31.82
2023-05-20T18:42:35.921Z,31.95
2023-05-20T18:45:04.661Z,32.08
2023-05-20T18:47:32.044Z,32.15
2023-05-20T18:50:00.962Z,32.26
2023-05-20T18:52:30.475Z,32.33
2023-05-20T18:54:57.891Z,32.43
2023-05-20T18:57:28.150Z,32.64
2023-05-20T18:59:57.225Z,32.68
2023-05-20T19:02:26.180Z,32.80
2023-05-20T19:04:53.748Z,32.89
2023-05-20T19:07:23.077Z,32.99
2023-05-20T19:09:52.194Z,33.11
2023-05-20T19:12:21.913Z,33.24
2023-05-20T19:14:49.141Z,33.28
2023-05-20T19:17:19.495Z,33.35
2023-05-20T19:19:49.570Z,33.54
2023-05-20T19:22:18.566Z,33.65
2023-05-20T19:24:47.113Z,33.67
2023-05-20T19:27:20.618Z,33.78
2023-05-20T19:29:52.968Z,34.03
2023-05-20T19:32:20.876Z,33.99
2023-05-20T19:34:49.732Z,34.06
2023-05-20T19:37:18.832Z,34.08
2023-05-20T19:39:48.118Z,34.17
2023-05-20T19:42:16.078Z,34.26
2023-05-20T19:44:46.834Z,34.24
2023-05-20T19:47:15.934Z,34.47
2023-05-20T19:49:46.021Z,34.60
2023-05-20T19:52:13.254Z,34.63
2023-05-20T19:54:42.767Z,34.69
2023-05-20T19:57:10.645Z,34.82
2023-05-20T19:59:38.340Z,34.90
2023-05-20T20:02:06.613Z,34.97
2023-05-20T20:04:34.333Z,35.13
2023-05-20T20:07:01.740Z,35.19
2023-05-20T20:09:28.965Z,35.26
2023-05-20T20:11:56.491Z,35.38
2023-05-20T20:14:23.748Z,35.49
2023-05-20T20:16:52.636Z,35.64
2023-05-20T20:19:23.261Z,35.66
2023-05-20T20:21:53.184Z,35.91
2023-05-20T20:24:24.488Z,35.88
2023-05-20T20:26:54.442Z,36.13
2023-05-20T20:29:22.269Z,36.25
2023-05-20T20:31:49.602Z,36.42
2023-05-20T20:34:17.111Z,36.50
2023-05-20T20:36:47.974Z,36.57
2023-05-20T20:39:26.327Z,36.61
2023-05-20T20:41:54.966Z,36.72
2023-05-20T20:44:22.815Z,36.86
2023-05-20T20:46:51.274Z,36.87
2023-05-20T20:49:20.390Z,37.09
2023-05-20T20:51:48.002Z,37.15
2023-05-20T20:54:15.321Z,37.18
2023-05-20T20:56:45.739Z,37.35
2023-05-20T20:59:13.880Z,37.42
2023-05-20T21:01:44.986Z,37.52
2023-05-20T21:04:14.983Z,37.60
2023-05-20T21:06:42.654Z,37.76
2023-05-20T21:09:12.563Z,38.01
2023-05-20T21:11:45.566Z,37.94
2023-05-20T21:14:13.058Z,38.40
2023-05-20T21:16:42.434Z,38.16
2023-05-20T21:19:09.834Z,38.08
2023-05-20T21:21:37.176Z,38.25
2023-05-20T21:24:06.558Z,38.23
2023-05-20T21:26:35.886Z,38.34
2023-05-20T21:29:08.298Z,38.54
2023-05-20T21:31:35.855Z,38.62
2023-05-20T21:34:05.357Z,38.65
2023-05-20T21:36:32.715Z,38.92
2023-05-20T21:39:04.796Z,39.03
2023-05-20T21:41:33.453Z,39.19
2023-05-20T21:44:00.738Z,39.27
2023-05-20T21:49:15.392Z,39.59
2023-05-20T21:51:44.109Z,39.65
2023-05-20T21:54:11.582Z,39.70
2023-05-20T21:56:39.402Z,39.87
2023-05-20T21:59:09.571Z,39.96
2023-05-20T22:01:37.887Z,40.01
2023-05-20T22:04:08.387Z,40.15
2023-05-20T22:06:36.799Z,40.28
2023-05-20T22:09:06.921Z,40.35
2023-05-20T22:11:34.232Z,40.44
2023-05-20T22:14:01.517Z,40.67
2023-05-20T22:16:31.140Z,40.94
2023-05-20T22:19:02.914Z,41.05
2023-05-20T22:21:34.175Z,41.12
2023-05-20T22:24:04.437Z,41.37
2023-05-20T22:26:34.550Z,41.56
2023-05-20T22:29:04.012Z,41.66
2023-05-20T22:31:34.551Z,41.68
2023-05-20T22:34:06.908Z,41.84
2023-05-20T22:36:42.026Z,41.92
2023-05-20T22:39:09.687Z,42.13
2023-05-20T22:41:38.680Z,42.29
2023-05-20T22:44:05.945Z,42.40
2023-05-20T22:46:33.427Z,42.50
2023-05-20T22:49:02.128Z,42.54
2023-05-20T22:51:29.418Z,42.64
2023-05-20T22:53:57.007Z,42.71
2023-05-20T22:56:30.592Z,42.84
2023-05-20T22:58:58.302Z,42.86
2023-05-20T23:01:26.784Z,42.98
2023-05-20T23:03:58.154Z,43.19
2023-05-20T23:06:27.072Z,43.14
2023-05-20T23:08:54.229Z,43.29
2023-05-20T23:11:31.732Z,43.35
2023-05-20T23:13:59.069Z,43.35
2023-05-20T23:16:29.932Z,43.44
2023-05-20T23:18:57.664Z,43.53
2023-05-20T23:21:25.631Z,43.68
2023-05-20T23:23:54.523Z,43.73
2023-05-20T23:26:23.152Z,43.79
2023-05-20T23:28:52.417Z,43.81
2023-05-20T23:31:22.953Z,44.02
2023-05-20T23:33:52.885Z,43.99
2023-05-20T23:36:20.951Z,44.17
2023-05-20T23:38:50.530Z,44.31
2023-05-20T23:41:17.901Z,44.33
2023-05-20T23:43:45.204Z,44.48
2023-05-20T23:46:12.871Z,44.33
2023-05-20T23:48:50.808Z,44.58
2023-05-20T23:51:19.314Z,44.54
2023-05-20T23:53:49.303Z,44.64
2023-05-20T23:56:17.381Z,44.62
2023-05-20T23:58:46.070Z,44.66
